sensor_id;sensor_type;location;lat;lon;timestamp;P1;durP1;ratioP1;P2;durP2;ratioP2
8252;SDS011;61313;48.396;10.008;2024-01-30T00:01:07;19.10;;;14.83;;
8252;SDS011;61313;48.396;10.008;2024-01-30T00:03:32;20.00;;;14.80;;
8252;SDS011;61313;48.396;10.008;2024-01-30T00:05:57;22.03;;;15.20;;
8252;SDS011;61313;48.396;10.008;2024-01-30T00:08:23;19.93;;;13.80;;
8252;SDS011;61313;48.396;10.008;2024-01-30T00:10:48;16.53;;;13.00;;
8252;SDS011;61313;48.396;10.008;2024-01-30T00:13:13;16.40;;;14.10;;
8252;SDS011;61313;48.396;10.008;2024-01-30T00:15:41;27.30;;;15.70;;
8252;SDS011;61313;48.396;10.008;2024-01-30T00:18:06;24.27;;;14.63;;
8252;SDS011;61313;48.396;10.008;2024-01-30T00:20:32;20.20;;;15.43;;
8252;SDS011;61313;48.396;10.008;2024-01-30T00:22:57;17.90;;;14.47;;
8252;SDS011;61313;48.396;10.008;2024-01-30T00:25:22;19.80;;;15.00;;
8252;SDS011;61313;48.396;10.008;2024-01-30T00:27:48;18.37;;;15.40;;
8252;SDS011;61313;48.396;10.008;2024-01-30T00:30:13;22.90;;;15.33;;
8252;SDS011;61313;48.396;10.008;2024-01-30T00:32:39;17.60;;;14.27;;
8252;SDS011;61313;48.396;10.008;2024-01-30T00:35:04;17.23;;;14.77;;
8252;SDS011;61313;48.396;10.008;2024-01-30T00:37:30;16.83;;;14.97;;
8252;SDS011;61313;48.396;10.008;2024-01-30T00:39:56;15.93;;;14.20;;
8252;SDS011;61313;48.396;10.008;2024-01-30T00:42:22;17.13;;;13.77;;
8252;SDS011;61313;48.396;10.008;2024-01-30T00:44:48;18.27;;;14.87;;
8252;SDS011;61313;48.396;10.008;2024-01-30T00:47:14;17.33;;;13.03;;
8252;SDS011;61313;48.396;10.008;2024-01-30T00:49:39;23.67;;;14.13;;
8252;SDS011;61313;48.396;10.008;2024-01-30T00:52:05;22.03;;;13.37;;
8252;SDS011;61313;48.396;10.008;2024-01-30T00:54:31;28.10;;;14.63;;
8252;SDS011;61313;48.396;10.008;2024-01-30T00:56:56;21.43;;;14.30;;
8252;SDS011;61313;48.396;10.008;2024-01-30T00:59:21;18.43;;;15.13;;
8252;SDS011;61313;48.396;10.008;2024-01-30T01:01:47;18.83;;;14.60;;
8252;SDS011;61313;48.396;10.008;2024-01-30T01:04:12;18.53;;;14.27;;
8252;SDS011;61313;48.396;10.008;2024-01-30T01:06:38;16.97;;;13.93;;
8252;SDS011;61313;48.396;10.008;2024-01-30T01:09:03;20.43;;;15.43;;
8252;SDS011;61313;48.396;10.008;2024-01-30T01:11:29;16.23;;;13.20;;
8252;SDS011;61313;48.396;10.008;2024-01-30T01:13:54;17.80;;;14.47;;
8252;SDS011;61313;48.396;10.008;2024-01-30T01:16:19;16.07;;;13.87;;
8252;SDS011;61313;48.396;10.008;2024-01-30T01:18:45;19.53;;;14.60;;
8252;SDS011;61313;48.396;10.008;2024-01-30T01:21:10;17.50;;;13.93;;
8252;SDS011;61313;48.396;10.008;2024-01-30T01:23:36;20.90;;;14.60;;
8252;SDS011;61313;48.396;10.008;2024-01-30T01:26:01;25.20;;;14.67;;
8252;SDS011;61313;48.396;10.008;2024-01-30T01:28:26;18.60;;;14.07;;
8252;SDS011;61313;48.396;10.008;2024-01-30T01:30:52;17.40;;;14.83;;
8252;SDS011;61313;48.396;10.008;2024-01-30T01:33:17;18.40;;;14.47;;
8252;SDS011;61313;48.396;10.008;2024-01-30T01:35:43;15.47;;;13.70;;
8252;SDS011;61313;48.396;10.008;2024-01-30T01:38:08;16.50;;;12.73;;
8252;SDS011;61313;48.396;10.008;2024-01-30T01:40:33;19.00;;;14.40;;
8252;SDS011;61313;48.396;10.008;2024-01-30T01:43:02;19.47;;;13.80;;
8252;SDS011;61313;48.396;10.008;2024-01-30T01:45:28;17.70;;;14.73;;
8252;SDS011;61313;48.396;10.008;2024-01-30T01:47:54;17.00;;;14.20;;
8252;SDS011;61313;48.396;10.008;2024-01-30T01:50:20;17.30;;;13.37;;
8252;SDS011;61313;48.396;10.008;2024-01-30T01:52:49;18.73;;;13.33;;
8252;SDS011;61313;48.396;10.008;2024-01-30T01:55:15;17.47;;;13.10;;
8252;SDS011;61313;48.396;10.008;2024-01-30T01:57:43;15.23;;;13.20;;
8252;SDS011;61313;48.396;10.008;2024-01-30T02:00:09;18.40;;;13.87;;
8252;SDS011;61313;48.396;10.008;2024-01-30T02:02:35;17.30;;;14.47;;
8252;SDS011;61313;48.396;10.008;2024-01-30T02:05:02;13.63;;;12.20;;
8252;SDS011;61313;48.396;10.008;2024-01-30T02:07:28;19.63;;;13.40;;
8252;SDS011;61313;48.396;10.008;2024-01-30T02:09:53;23.07;;;13.10;;
8252;SDS011;61313;48.396;10.008;2024-01-30T02:12:20;17.40;;;11.83;;
8252;SDS011;61313;48.396;10.008;2024-01-30T02:14:45;15.10;;;12.80;;
8252;SDS011;61313;48.396;10.008;2024-01-30T02:17:12;13.80;;;12.37;;
8252;SDS011;61313;48.396;10.008;2024-01-30T02:19:37;19.23;;;13.90;;
8252;SDS011;61313;48.396;10.008;2024-01-30T02:22:03;17.10;;;12.40;;
8252;SDS011;61313;48.396;10.008;2024-01-30T02:24:29;18.03;;;13.20;;
8252;SDS011;61313;48.396;10.008;2024-01-30T02:26:54;15.47;;;12.60;;
8252;SDS011;61313;48.396;10.008;2024-01-30T02:29:20;14.93;;;12.03;;
8252;SDS011;61313;48.396;10.008;2024-01-30T02:31:46;20.83;;;12.80;;
8252;SDS011;61313;48.396;10.008;2024-01-30T02:34:11;17.90;;;12.53;;
8252;SDS011;61313;48.396;10.008;2024-01-30T02:36:36;13.70;;;11.73;;
8252;SDS011;61313;48.396;10.008;2024-01-30T02:39:02;16.80;;;11.90;;
8252;SDS011;61313;48.396;10.008;2024-01-30T02:41:27;15.60;;;12.17;;
8252;SDS011;61313;48.396;10.008;2024-01-30T02:43:53;17.57;;;13.80;;
8252;SDS011;61313;48.396;10.008;2024-01-30T02:46:18;14.60;;;11.70;;
8252;SDS011;61313;48.396;10.008;2024-01-30T02:48:44;14.60;;;12.73;;
8252;SDS011;61313;48.396;10.008;2024-01-30T02:51:09;13.37;;;12.03;;
8252;SDS011;61313;48.396;10.008;2024-01-30T02:53:34;32.00;;;13.97;;
8252;SDS011;61313;48.396;10.008;2024-01-30T02:56:01;20.60;;;12.00;;
8252;SDS011;61313;48.396;10.008;2024-01-30T02:58:27;14.40;;;12.43;;
8252;SDS011;61313;48.396;10.008;2024-01-30T03:00:53;17.00;;;13.87;;
8252;SDS011;61313;48.396;10.008;2024-01-30T03:03:18;15.83;;;12.70;;
8252;SDS011;61313;48.396;10.008;2024-01-30T03:05:43;13.93;;;11.60;;
8252;SDS011;61313;48.396;10.008;2024-01-30T03:08:09;15.33;;;13.20;;
8252;SDS011;61313;48.396;10.008;2024-01-30T03:10:34;17.00;;;13.43;;
8252;SDS011;61313;48.396;10.008;2024-01-30T03:12:59;19.93;;;12.27;;
8252;SDS011;61313;48.396;10.008;2024-01-30T03:15:25;17.20;;;11.83;;
8252;SDS011;61313;48.396;10.008;2024-01-30T03:17:50;14.07;;;11.63;;
8252;SDS011;61313;48.396;10.008;2024-01-30T03:20:16;17.50;;;12.00;;
8252;SDS011;61313;48.396;10.008;2024-01-30T03:22:41;16.17;;;12.63;;
8252;SDS011;61313;48.396;10.008;2024-01-30T03:25:06;14.53;;;11.33;;
8252;SDS011;61313;48.396;10.008;2024-01-30T03:27:32;20.40;;;12.57;;
8252;SDS011;61313;48.396;10.008;2024-01-30T03:29:57;15.27;;;11.30;;
8252;SDS011;61313;48.396;10.008;2024-01-30T03:32:23;14.40;;;12.23;;
8252;SDS011;61313;48.396;10.008;2024-01-30T03:34:48;14.67;;;11.30;;
8252;SDS011;61313;48.396;10.008;2024-01-30T03:37:13;13.80;;;10.53;;
8252;SDS011;61313;48.396;10.008;2024-01-30T03:39:39;12.87;;;11.47;;
8252;SDS011;61313;48.396;10.008;2024-01-30T03:42:04;17.50;;;10.80;;
8252;SDS011;61313;48.396;10.008;2024-01-30T03:44:30;12.83;;;11.40;;
8252;SDS011;61313;48.396;10.008;2024-01-30T03:46:55;15.30;;;11.47;;
8252;SDS011;61313;48.396;10.008;2024-01-30T03:49:20;18.53;;;12.60;;
8252;SDS011;61313;48.396;10.008;2024-01-30T03:51:46;16.33;;;12.40;;
8252;SDS011;61313;48.396;10.008;2024-01-30T03:54:12;17.60;;;12.30;;
8252;SDS011;61313;48.396;10.008;2024-01-30T03:56:38;15.73;;;12.17;;
8252;SDS011;61313;48.396;10.008;2024-01-30T03:59:03;15.60;;;12.13;;
8252;SDS011;61313;48.396;10.008;2024-01-30T04:01:28;15.80;;;12.90;;
8252;SDS011;61313;48.396;10.008;2024-01-30T04:03:54;17.60;;;12.80;;
8252;SDS011;61313;48.396;10.008;2024-01-30T04:06:19;15.90;;;12.80;;
8252;SDS011;61313;48.396;10.008;2024-01-30T04:08:44;15.33;;;11.50;;
8252;SDS011;61313;48.396;10.008;2024-01-30T04:11:10;15.27;;;11.53;;
8252;SDS011;61313;48.396;10.008;2024-01-30T04:13:35;17.43;;;13.07;;
8252;SDS011;61313;48.396;10.008;2024-01-30T04:16:01;13.30;;;11.80;;
8252;SDS011;61313;48.396;10.008;2024-01-30T04:18:27;14.93;;;11.97;;
8252;SDS011;61313;48.396;10.008;2024-01-30T04:20:53;13.67;;;12.10;;
8252;SDS011;61313;48.396;10.008;2024-01-30T04:23:19;16.47;;;13.50;;
8252;SDS011;61313;48.396;10.008;2024-01-30T04:25:44;16.47;;;12.10;;
8252;SDS011;61313;48.396;10.008;2024-01-30T04:28:10;14.20;;;11.87;;
8252;SDS011;61313;48.396;10.008;2024-01-30T04:30:37;22.03;;;12.47;;
8252;SDS011;61313;48.396;10.008;2024-01-30T04:33:03;19.70;;;12.83;;
8252;SDS011;61313;48.396;10.008;2024-01-30T04:35:28;20.43;;;13.17;;
8252;SDS011;61313;48.396;10.008;2024-01-30T04:37:54;17.07;;;12.13;;
8252;SDS011;61313;48.396;10.008;2024-01-30T04:40:20;20.07;;;13.00;;
8252;SDS011;61313;48.396;10.008;2024-01-30T04:42:46;17.70;;;12.93;;
8252;SDS011;61313;48.396;10.008;2024-01-30T04:45:12;20.53;;;13.90;;
8252;SDS011;61313;48.396;10.008;2024-01-30T04:47:37;17.00;;;13.27;;
8252;SDS011;61313;48.396;10.008;2024-01-30T04:50:04;15.30;;;12.47;;
8252;SDS011;61313;48.396;10.008;2024-01-30T04:52:31;17.30;;;12.90;;
8252;SDS011;61313;48.396;10.008;2024-01-30T04:54:56;15.50;;;13.20;;
8252;SDS011;61313;48.396;10.008;2024-01-30T04:57:21;17.40;;;14.50;;
8252;SDS011;61313;48.396;10.008;2024-01-30T04:59:47;18.60;;;15.27;;
8252;SDS011;61313;48.396;10.008;2024-01-30T05:02:12;20.90;;;14.67;;
8252;SDS011;61313;48.396;10.008;2024-01-30T05:04:38;17.07;;;13.17;;
8252;SDS011;61313;48.396;10.008;2024-01-30T05:07:03;18.00;;;13.97;;
8252;SDS011;61313;48.396;10.008;2024-01-30T05:09:29;19.00;;;13.67;;
8252;SDS011;61313;48.396;10.008;2024-01-30T05:11:54;21.83;;;14.20;;
8252;SDS011;61313;48.396;10.008;2024-01-30T05:14:20;17.53;;;14.17;;
8252;SDS011;61313;48.396;10.008;2024-01-30T05:16:45;19.23;;;14.60;;
8252;SDS011;61313;48.396;10.008;2024-01-30T05:19:12;16.90;;;13.33;;
8252;SDS011;61313;48.396;10.008;2024-01-30T05:21:39;20.33;;;15.80;;
8252;SDS011;61313;48.396;10.008;2024-01-30T05:24:05;16.10;;;12.70;;
8252;SDS011;61313;48.396;10.008;2024-01-30T05:26:30;18.10;;;13.00;;
8252;SDS011;61313;48.396;10.008;2024-01-30T05:28:56;16.57;;;12.87;;
8252;SDS011;61313;48.396;10.008;2024-01-30T05:31:22;16.93;;;13.30;;
8252;SDS011;61313;48.396;10.008;2024-01-30T05:33:47;16.37;;;13.23;;
8252;SDS011;61313;48.396;10.008;2024-01-30T05:36:13;18.37;;;12.37;;
8252;SDS011;61313;48.396;10.008;2024-01-30T05:38:38;13.93;;;12.47;;
8252;SDS011;61313;48.396;10.008;2024-01-30T05:41:04;16.47;;;13.00;;
8252;SDS011;61313;48.396;10.008;2024-01-30T05:43:29;31.30;;;14.87;;
8252;SDS011;61313;48.396;10.008;2024-01-30T05:45:55;18.57;;;13.60;;
8252;SDS011;61313;48.396;10.008;2024-01-30T05:48:20;15.80;;;12.73;;
8252;SDS011;61313;48.396;10.008;2024-01-30T05:50:46;17.17;;;13.03;;
8252;SDS011;61313;48.396;10.008;2024-01-30T05:53:11;13.60;;;12.27;;
8252;SDS011;61313;48.396;10.008;2024-01-30T05:55:37;20.50;;;13.50;;
8252;SDS011;61313;48.396;10.008;2024-01-30T05:58:02;18.90;;;12.90;;
8252;SDS011;61313;48.396;10.008;2024-01-30T06:00:29;28.30;;;14.40;;
8252;SDS011;61313;48.396;10.008;2024-01-30T06:02:54;19.00;;;13.87;;
8252;SDS011;61313;48.396;10.008;2024-01-30T06:05:19;18.23;;;13.77;;
8252;SDS011;61313;48.396;10.008;2024-01-30T06:07:45;17.80;;;12.60;;
8252;SDS011;61313;48.396;10.008;2024-01-30T06:10:10;19.73;;;12.30;;
8252;SDS011;61313;48.396;10.008;2024-01-30T06:12:36;17.50;;;13.13;;
8252;SDS011;61313;48.396;10.008;2024-01-30T06:15:02;17.90;;;13.83;;
8252;SDS011;61313;48.396;10.008;2024-01-30T06:17:28;22.10;;;14.43;;
8252;SDS011;61313;48.396;10.008;2024-01-30T06:19:54;16.17;;;12.40;;
8252;SDS011;61313;48.396;10.008;2024-01-30T06:22:19;22.80;;;14.50;;
8252;SDS011;61313;48.396;10.008;2024-01-30T06:24:45;26.77;;;13.37;;
8252;SDS011;61313;48.396;10.008;2024-01-30T06:27:12;18.20;;;12.43;;
8252;SDS011;61313;48.396;10.008;2024-01-30T06:29:38;15.77;;;13.10;;
8252;SDS011;61313;48.396;10.008;2024-01-30T06:32:03;15.33;;;12.83;;
8252;SDS011;61313;48.396;10.008;2024-01-30T06:34:29;31.13;;;14.90;;
8252;SDS011;61313;48.396;10.008;2024-01-30T06:36:55;31.30;;;14.03;;
8252;SDS011;61313;48.396;10.008;2024-01-30T06:39:20;20.80;;;14.77;;
8252;SDS011;61313;48.396;10.008;2024-01-30T06:41:45;21.50;;;14.67;;
8252;SDS011;61313;48.396;10.008;2024-01-30T06:44:12;29.10;;;13.83;;
8252;SDS011;61313;48.396;10.008;2024-01-30T06:46:38;40.03;;;17.00;;
8252;SDS011;61313;48.396;10.008;2024-01-30T06:49:03;30.03;;;15.77;;
8252;SDS011;61313;48.396;10.008;2024-01-30T06:51:28;31.10;;;14.53;;
8252;SDS011;61313;48.396;10.008;2024-01-30T06:53:54;20.37;;;14.40;;
8252;SDS011;61313;48.396;10.008;2024-01-30T06:56:19;19.87;;;14.53;;
8252;SDS011;61313;48.396;10.008;2024-01-30T06:58:49;19.23;;;13.50;;
8252;SDS011;61313;48.396;10.008;2024-01-30T07:01:15;17.10;;;14.03;;
8252;SDS011;61313;48.396;10.008;2024-01-30T07:03:41;18.83;;;13.33;;
8252;SDS011;61313;48.396;10.008;2024-01-30T07:06:07;16.50;;;14.70;;
8252;SDS011;61313;48.396;10.008;2024-01-30T07:08:33;15.40;;;12.47;;
8252;SDS011;61313;48.396;10.008;2024-01-30T07:10:58;16.90;;;12.47;;
8252;SDS011;61313;48.396;10.008;2024-01-30T07:13:24;16.67;;;13.87;;
8252;SDS011;61313;48.396;10.008;2024-01-30T07:15:49;11.97;;;7.90;;
8252;SDS011;61313;48.396;10.008;2024-01-30T07:18:15;15.13;;;9.87;;
8252;SDS011;61313;48.396;10.008;2024-01-30T07:20:40;17.63;;;11.93;;
8252;SDS011;61313;48.396;10.008;2024-01-30T07:23:12;14.10;;;10.37;;
8252;SDS011;61313;48.396;10.008;2024-01-30T07:25:42;32.97;;;15.13;;
8252;SDS011;61313;48.396;10.008;2024-01-30T07:28:07;16.07;;;13.07;;
8252;SDS011;61313;48.396;10.008;2024-01-30T07:30:37;22.23;;;14.30;;
8252;SDS011;61313;48.396;10.008;2024-01-30T07:33:03;17.17;;;15.27;;
8252;SDS011;61313;48.396;10.008;2024-01-30T07:35:29;19.27;;;13.43;;
8252;SDS011;61313;48.396;10.008;2024-01-30T07:37:54;14.83;;;13.33;;
8252;SDS011;61313;48.396;10.008;2024-01-30T07:40:20;14.47;;;13.00;;
8252;SDS011;61313;48.396;10.008;2024-01-30T07:42:45;19.67;;;15.40;;
8252;SDS011;61313;48.396;10.008;2024-01-30T07:45:10;15.63;;;13.57;;
8252;SDS011;61313;48.396;10.008;2024-01-30T07:47:36;16.43;;;14.20;;
8252;SDS011;61313;48.396;10.008;2024-01-30T07:50:01;29.27;;;15.37;;
8252;SDS011;61313;48.396;10.008;2024-01-30T07:52:26;17.23;;;13.93;;
8252;SDS011;61313;48.396;10.008;2024-01-30T07:54:52;19.60;;;14.33;;
8252;SDS011;61313;48.396;10.008;2024-01-30T07:57:17;19.77;;;14.10;;
8252;SDS011;61313;48.396;10.008;2024-01-30T07:59:43;15.90;;;13.83;;
8252;SDS011;61313;48.396;10.008;2024-01-30T08:02:09;16.07;;;13.97;;
8252;SDS011;61313;48.396;10.008;2024-01-30T08:04:38;16.93;;;13.90;;
8252;SDS011;61313;48.396;10.008;2024-01-30T08:07:04;18.87;;;14.57;;
8252;SDS011;61313;48.396;10.008;2024-01-30T08:09:29;22.83;;;15.00;;
8252;SDS011;61313;48.396;10.008;2024-01-30T08:11:54;19.53;;;14.27;;
8252;SDS011;61313;48.396;10.008;2024-01-30T08:14:20;20.00;;;15.90;;
8252;SDS011;61313;48.396;10.008;2024-01-30T08:16:45;19.27;;;14.70;;
8252;SDS011;61313;48.396;10.008;2024-01-30T08:19:11;16.10;;;14.40;;
8252;SDS011;61313;48.396;10.008;2024-01-30T08:21:36;21.60;;;15.47;;
8252;SDS011;61313;48.396;10.008;2024-01-30T08:24:03;20.07;;;15.47;;
8252;SDS011;61313;48.396;10.008;2024-01-30T08:26:29;16.60;;;14.90;;
8252;SDS011;61313;48.396;10.008;2024-01-30T08:28:55;17.30;;;14.60;;
8252;SDS011;61313;48.396;10.008;2024-01-30T08:31:20;16.60;;;13.80;;
8252;SDS011;61313;48.396;10.008;2024-01-30T08:33:46;15.10;;;13.60;;
8252;SDS011;61313;48.396;10.008;2024-01-30T08:36:11;15.23;;;13.63;;
8252;SDS011;61313;48.396;10.008;2024-01-30T08:38:36;15.37;;;13.40;;
8252;SDS011;61313;48.396;10.008;2024-01-30T08:41:02;16.87;;;14.30;;
8252;SDS011;61313;48.396;10.008;2024-01-30T08:43:28;17.00;;;15.30;;
8252;SDS011;61313;48.396;10.008;2024-01-30T08:45:53;18.30;;;16.50;;
8252;SDS011;61313;48.396;10.008;2024-01-30T08:48:18;16.27;;;14.30;;
8252;SDS011;61313;48.396;10.008;2024-01-30T08:50:44;19.40;;;14.60;;
8252;SDS011;61313;48.396;10.008;2024-01-30T08:53:09;17.90;;;15.20;;
8252;SDS011;61313;48.396;10.008;2024-01-30T08:55:35;15.73;;;14.20;;
8252;SDS011;61313;48.396;10.008;2024-01-30T08:58:00;25.70;;;15.87;;
8252;SDS011;61313;48.396;10.008;2024-01-30T09:00:25;16.67;;;14.77;;
8252;SDS011;61313;48.396;10.008;2024-01-30T09:02:51;23.00;;;16.00;;
8252;SDS011;61313;48.396;10.008;2024-01-30T09:05:16;24.27;;;15.73;;
8252;SDS011;61313;48.396;10.008;2024-01-30T09:07:42;16.60;;;14.83;;
8252;SDS011;61313;48.396;10.008;2024-01-30T09:10:07;17.90;;;14.60;;
8252;SDS011;61313;48.396;10.008;2024-01-30T09:12:33;17.70;;;14.70;;
8252;SDS011;61313;48.396;10.008;2024-01-30T09:14:58;17.37;;;15.37;;
8252;SDS011;61313;48.396;10.008;2024-01-30T09:17:24;22.03;;;16.20;;
8252;SDS011;61313;48.396;10.008;2024-01-30T09:19:50;25.70;;;17.00;;
8252;SDS011;61313;48.396;10.008;2024-01-30T09:22:15;20.73;;;15.83;;
8252;SDS011;61313;48.396;10.008;2024-01-30T09:24:41;18.63;;;15.70;;
8252;SDS011;61313;48.396;10.008;2024-01-30T09:27:06;20.40;;;14.60;;
8252;SDS011;61313;48.396;10.008;2024-01-30T09:29:31;18.43;;;14.83;;
8252;SDS011;61313;48.396;10.008;2024-01-30T09:31:59;22.43;;;15.50;;
8252;SDS011;61313;48.396;10.008;2024-01-30T09:34:25;18.17;;;14.47;;
8252;SDS011;61313;48.396;10.008;2024-01-30T09:36:50;18.60;;;14.80;;
8252;SDS011;61313;48.396;10.008;2024-01-30T09:39:15;19.17;;;14.77;;
8252;SDS011;61313;48.396;10.008;2024-01-30T09:41:45;20.10;;;15.10;;
8252;SDS011;61313;48.396;10.008;2024-01-30T09:44:20;21.70;;;16.47;;
8252;SDS011;61313;48.396;10.008;2024-01-30T09:46:48;19.50;;;16.23;;
8252;SDS011;61313;48.396;10.008;2024-01-30T09:49:14;21.50;;;15.73;;
8252;SDS011;61313;48.396;10.008;2024-01-30T09:51:40;17.03;;;15.33;;
8252;SDS011;61313;48.396;10.008;2024-01-30T09:54:07;18.57;;;15.00;;
8252;SDS011;61313;48.396;10.008;2024-01-30T09:56:34;22.87;;;15.83;;
8252;SDS011;61313;48.396;10.008;2024-01-30T09:59:00;19.30;;;15.13;;
8252;SDS011;61313;48.396;10.008;2024-01-30T10:01:25;20.17;;;15.73;;
8252;SDS011;61313;48.396;10.008;2024-01-30T10:03:51;19.10;;;14.43;;
8252;SDS011;61313;48.396;10.008;2024-01-30T10:06:19;17.60;;;14.70;;
8252;SDS011;61313;48.396;10.008;2024-01-30T10:08:45;17.83;;;14.87;;
8252;SDS011;61313;48.396;10.008;2024-01-30T10:11:11;85.60;;;22.67;;
8252;SDS011;61313;48.396;10.008;2024-01-30T10:13:37;89.73;;;21.93;;
8252;SDS011;61313;48.396;10.008;2024-01-30T10:16:04;46.60;;;21.03;;
8252;SDS011;61313;48.396;10.008;2024-01-30T10:18:31;29.73;;;16.10;;
8252;SDS011;61313;48.396;10.008;2024-01-30T10:20:57;18.83;;;15.53;;
8252;SDS011;61313;48.396;10.008;2024-01-30T10:23:22;24.60;;;16.80;;
8252;SDS011;61313;48.396;10.008;2024-01-30T10:25:47;26.03;;;16.83;;
8252;SDS011;61313;48.396;10.008;2024-01-30T10:28:13;20.17;;;16.40;;
8252;SDS011;61313;48.396;10.008;2024-01-30T10:30:38;20.37;;;15.80;;
8252;SDS011;61313;48.396;10.008;2024-01-30T10:33:04;26.27;;;16.50;;
8252;SDS011;61313;48.396;10.008;2024-01-30T10:35:29;22.80;;;15.20;;
8252;SDS011;61313;48.396;10.008;2024-01-30T10:37:55;23.77;;;17.53;;
8252;SDS011;61313;48.396;10.008;2024-01-30T10:40:23;18.03;;;14.53;;
8252;SDS011;61313;48.396;10.008;2024-01-30T10:42:52;24.50;;;16.53;;
8252;SDS011;61313;48.396;10.008;2024-01-30T10:45:20;26.10;;;16.97;;
8252;SDS011;61313;48.396;10.008;2024-01-30T10:47:52;18.73;;;15.60;;
8252;SDS011;61313;48.396;10.008;2024-01-30T10:50:19;20.53;;;16.00;;
8252;SDS011;61313;48.396;10.008;2024-01-30T10:52:45;24.07;;;16.30;;
8252;SDS011;61313;48.396;10.008;2024-01-30T10:55:12;24.30;;;17.00;;
8252;SDS011;61313;48.396;10.008;2024-01-30T10:57:38;21.17;;;15.30;;
8252;SDS011;61313;48.396;10.008;2024-01-30T11:00:08;19.57;;;17.47;;
8252;SDS011;61313;48.396;10.008;2024-01-30T11:02:36;24.30;;;17.43;;
8252;SDS011;61313;48.396;10.008;2024-01-30T11:05:11;17.73;;;15.13;;
8252;SDS011;61313;48.396;10.008;2024-01-30T11:07:38;18.90;;;16.43;;
8252;SDS011;61313;48.396;10.008;2024-01-30T11:10:05;25.70;;;16.93;;
8252;SDS011;61313;48.396;10.008;2024-01-30T11:12:37;32.73;;;18.10;;
8252;SDS011;61313;48.396;10.008;2024-01-30T11:15:15;29.77;;;17.33;;
8252;SDS011;61313;48.396;10.008;2024-01-30T11:20:19;33.37;;;17.67;;
8252;SDS011;61313;48.396;10.008;2024-01-30T11:22:46;25.30;;;16.90;;
8252;SDS011;61313;48.396;10.008;2024-01-30T11:25:15;26.37;;;17.60;;
8252;SDS011;61313;48.396;10.008;2024-01-30T11:27:45;24.30;;;16.30;;
8252;SDS011;61313;48.396;10.008;2024-01-30T11:30:20;21.87;;;16.90;;
8252;SDS011;61313;48.396;10.008;2024-01-30T11:32:57;17.63;;;15.43;;
8252;SDS011;61313;48.396;10.008;2024-01-30T11:35:25;19.00;;;15.20;;
8252;SDS011;61313;48.396;10.008;2024-01-30T11:37:51;19.00;;;16.57;;
8252;SDS011;61313;48.396;10.008;2024-01-30T11:40:16;21.77;;;15.17;;
8252;SDS011;61313;48.396;10.008;2024-01-30T11:42:41;20.83;;;18.70;;
8252;SDS011;61313;48.396;10.008;2024-01-30T11:45:08;28.47;;;16.83;;
8252;SDS011;61313;48.396;10.008;2024-01-30T11:47:36;60.90;;;21.60;;
8252;SDS011;61313;48.396;10.008;2024-01-30T11:50:05;49.50;;;20.37;;
8252;SDS011;61313;48.396;10.008;2024-01-30T11:52:32;35.47;;;19.80;;
8252;SDS011;61313;48.396;10.008;2024-01-30T11:54:58;65.07;;;20.77;;
8252;SDS011;61313;48.396;10.008;2024-01-30T11:57:26;59.43;;;20.47;;
8252;SDS011;61313;48.396;10.008;2024-01-30T11:59:52;27.13;;;17.47;;
8252;SDS011;61313;48.396;10.008;2024-01-30T12:02:17;19.90;;;16.07;;
8252;SDS011;61313;48.396;10.008;2024-01-30T12:04:43;20.27;;;14.60;;
8252;SDS011;61313;48.396;10.008;2024-01-30T12:07:08;19.60;;;17.50;;
8252;SDS011;61313;48.396;10.008;2024-01-30T12:09:34;21.43;;;17.13;;
8252;SDS011;61313;48.396;10.008;2024-01-30T12:11:59;21.03;;;16.50;;
8252;SDS011;61313;48.396;10.008;2024-01-30T12:14:25;23.30;;;18.20;;
8252;SDS011;61313;48.396;10.008;2024-01-30T12:16:51;20.13;;;16.80;;
8252;SDS011;61313;48.396;10.008;2024-01-30T12:19:23;19.73;;;16.43;;
8252;SDS011;61313;48.396;10.008;2024-01-30T12:21:58;20.00;;;16.60;;
8252;SDS011;61313;48.396;10.008;2024-01-30T12:24:27;18.10;;;15.87;;
8252;SDS011;61313;48.396;10.008;2024-01-30T12:26:56;22.63;;;16.93;;
8252;SDS011;61313;48.396;10.008;2024-01-30T12:29:22;20.67;;;17.90;;
8252;SDS011;61313;48.396;10.008;2024-01-30T12:31:47;28.47;;;19.83;;
8252;SDS011;61313;48.396;10.008;2024-01-30T12:34:17;10.33;;;9.03;;
8252;SDS011;61313;48.396;10.008;2024-01-30T12:36:43;24.47;;;17.27;;
8252;SDS011;61313;48.396;10.008;2024-01-30T12:39:11;26.30;;;16.80;;
8252;SDS011;61313;48.396;10.008;2024-01-30T12:41:39;23.10;;;16.67;;
8252;SDS011;61313;48.396;10.008;2024-01-30T12:44:05;28.40;;;18.00;;
8252;SDS011;61313;48.396;10.008;2024-01-30T12:46:30;62.53;;;22.20;;
8252;SDS011;61313;48.396;10.008;2024-01-30T12:48:56;64.67;;;21.30;;
8252;SDS011;61313;48.396;10.008;2024-01-30T12:51:21;116.77;;;30.73;;
8252;SDS011;61313;48.396;10.008;2024-01-30T12:53:47;47.30;;;20.87;;
8252;SDS011;61313;48.396;10.008;2024-01-30T12:56:13;32.37;;;19.23;;
8252;SDS011;61313;48.396;10.008;2024-01-30T12:58:39;29.63;;;18.80;;
8252;SDS011;61313;48.396;10.008;2024-01-30T13:01:06;25.27;;;17.77;;
8252;SDS011;61313;48.396;10.008;2024-01-30T13:03:32;23.23;;;18.30;;
8252;SDS011;61313;48.396;10.008;2024-01-30T13:05:57;27.27;;;17.40;;
8252;SDS011;61313;48.396;10.008;2024-01-30T13:08:23;23.83;;;19.47;;
8252;SDS011;61313;48.396;10.008;2024-01-30T13:10:49;20.87;;;15.90;;
8252;SDS011;61313;48.396;10.008;2024-01-30T13:13:14;25.07;;;18.50;;
8252;SDS011;61313;48.396;10.008;2024-01-30T13:15:40;20.27;;;17.27;;
8252;SDS011;61313;48.396;10.008;2024-01-30T13:18:05;23.93;;;17.30;;
8252;SDS011;61313;48.396;10.008;2024-01-30T13:20:31;23.77;;;17.53;;
8252;SDS011;61313;48.396;10.008;2024-01-30T13:22:56;18.53;;;15.97;;
8252;SDS011;61313;48.396;10.008;2024-01-30T13:25:22;23.20;;;18.67;;
8252;SDS011;61313;48.396;10.008;2024-01-30T13:27:47;22.07;;;17.83;;
8252;SDS011;61313;48.396;10.008;2024-01-30T13:30:12;22.13;;;17.67;;
8252;SDS011;61313;48.396;10.008;2024-01-30T13:32:39;21.03;;;17.40;;
8252;SDS011;61313;48.396;10.008;2024-01-30T13:35:06;25.03;;;16.80;;
8252;SDS011;61313;48.396;10.008;2024-01-30T13:37:32;22.90;;;16.97;;
8252;SDS011;61313;48.396;10.008;2024-01-30T13:39:57;17.83;;;15.00;;
8252;SDS011;61313;48.396;10.008;2024-01-30T13:42:22;19.80;;;16.30;;
8252;SDS011;61313;48.396;10.008;2024-01-30T13:44:48;23.00;;;17.77;;
8252;SDS011;61313;48.396;10.008;2024-01-30T13:47:14;21.57;;;16.73;;
8252;SDS011;61313;48.396;10.008;2024-01-30T13:49:39;19.17;;;15.20;;
8252;SDS011;61313;48.396;10.008;2024-01-30T13:52:05;22.60;;;16.20;;
8252;SDS011;61313;48.396;10.008;2024-01-30T13:54:33;20.37;;;15.57;;
8252;SDS011;61313;48.396;10.008;2024-01-30T13:56:59;20.97;;;16.90;;
8252;SDS011;61313;48.396;10.008;2024-01-30T13:59:24;38.20;;;15.70;;
8252;SDS011;61313;48.396;10.008;2024-01-30T14:01:50;19.83;;;15.53;;
8252;SDS011;61313;48.396;10.008;2024-01-30T14:04:16;24.43;;;16.00;;
8252;SDS011;61313;48.396;10.008;2024-01-30T14:06:45;21.23;;;16.40;;
8252;SDS011;61313;48.396;10.008;2024-01-30T14:09:10;18.40;;;15.40;;
8252;SDS011;61313;48.396;10.008;2024-01-30T14:11:36;18.87;;;16.77;;
8252;SDS011;61313;48.396;10.008;2024-01-30T14:14:01;21.63;;;16.13;;
8252;SDS011;61313;48.396;10.008;2024-01-30T14:16:26;16.87;;;15.07;;